SDM601 URSS-UGTB
Flight info
| Callsign | SDM601 |
|---|---|
| Flight time | 1h 5m |
| Altitude | 37000 |
| Route | ULKOT DCT GUBOR DCT DINAP DCT NIMSA DCT GUSLI/N0436F370 DCT GIMUR |
| Aircraft | A320/M-SDE3FGHIRWY/LB1 |
Departure
| Time | 2026-04-26 17:53 |
|---|---|
| Airport | Sochi International Airport (URSS) |
Arrival
| Time | 2026-04-26 18:58 |
|---|---|
| Airport | Tbilisi International Airport (UGTB) |
| Time | Latitude | Longitude | Altitude | Speed | Heading |
|---|---|---|---|---|---|
| 2026-04-26 17:32 | 43.44818 | 39.94371 | 74 ft | 0 kts | 334° |
| 2026-04-26 17:41 | 43.44813 | 39.94374 | 74 ft | 2 kts | 334° |
| 2026-04-26 17:41 | 43.44798 | 39.94383 | 63 ft | 2 kts | 335° |
| 2026-04-26 17:42 | 43.44784 | 39.94393 | 71 ft | 2 kts | 335° |
| 2026-04-26 17:42 | 43.44769 | 39.94402 | 67 ft | 2 kts | 336° |
| 2026-04-26 17:42 | 43.44754 | 39.94411 | 70 ft | 2 kts | 338° |
| 2026-04-26 17:42 | 43.44738 | 39.94419 | 67 ft | 2 kts | 340° |
| 2026-04-26 17:43 | 43.44723 | 39.94426 | 69 ft | 2 kts | 347° |
| 2026-04-26 17:43 | 43.44706 | 39.94430 | 64 ft | 2 kts | 24° |
| 2026-04-26 17:43 | 43.44698 | 39.94421 | 70 ft | 0 kts | 66° |
| 2026-04-26 17:43 | 43.44698 | 39.94420 | 69 ft | 0 kts | 65° |
| 2026-04-26 17:46 | 43.44714 | 39.94467 | 66 ft | 17 kts | 64° |
| 2026-04-26 17:46 | 43.44765 | 39.94613 | 73 ft | 18 kts | 65° |
| 2026-04-26 17:46 | 43.44821 | 39.94775 | 68 ft | 20 kts | 64° |
| 2026-04-26 17:46 | 43.44871 | 39.94924 | 70 ft | 0 kts | 65° |
| 2026-04-26 17:50 | 43.44871 | 39.94925 | 70 ft | 2 kts | 65° |
| 2026-04-26 17:50 | 43.44930 | 39.95098 | 83 ft | 24 kts | 64° |
| 2026-04-26 17:50 | 43.45001 | 39.95297 | 89 ft | 23 kts | 64° |
| 2026-04-26 17:50 | 43.45055 | 39.95483 | 93 ft | 17 kts | 91° |
| 2026-04-26 17:51 | 43.45050 | 39.95504 | 93 ft | 0 kts | 120° |
| 2026-04-26 17:51 | 43.45049 | 39.95505 | 93 ft | 2 kts | 121° |
| 2026-04-26 17:52 | 43.44966 | 39.95542 | 93 ft | 12 kts | 201° |
| 2026-04-26 17:52 | 43.44951 | 39.95516 | 91 ft | 1 kts | 242° |
| 2026-04-26 17:52 | 43.44870 | 39.95283 | 86 ft | 66 kts | 245° |
| 2026-04-26 17:52 | 43.44575 | 39.94410 | 71 ft | 131 kts | 244° |
| 2026-04-26 17:53 | 43.44128 | 39.93098 | 309 ft | 158 kts | 245° |
| 2026-04-26 17:53 | 43.43648 | 39.91714 | 896 ft | 165 kts | 244° |
| 2026-04-26 17:53 | 43.43275 | 39.90201 | 1556 ft | 168 kts | 257° |
| 2026-04-26 17:54 | 43.43256 | 39.86707 | 2468 ft | 207 kts | 277° |
| 2026-04-26 17:54 | 43.43671 | 39.84674 | 2811 ft | 235 kts | 289° |
| 2026-04-26 17:54 | 43.44501 | 39.82590 | 3264 ft | 263 kts | 304° |
| 2026-04-26 17:54 | 43.45637 | 39.80580 | 3969 ft | 275 kts | 306° |
| 2026-04-26 17:55 | 43.46812 | 39.78514 | 4885 ft | 280 kts | 305° |
| 2026-04-26 17:55 | 43.48018 | 39.76385 | 5812 ft | 284 kts | 304° |
| 2026-04-26 17:55 | 43.49235 | 39.74228 | 6724 ft | 287 kts | 304° |
| 2026-04-26 17:55 | 43.50466 | 39.72041 | 7646 ft | 290 kts | 304° |
| 2026-04-26 17:56 | 43.51699 | 39.69847 | 8637 ft | 290 kts | 304° |
| 2026-04-26 17:56 | 43.54187 | 39.65395 | 10263 ft | 304 kts | 303° |
| 2026-04-26 17:57 | 43.56893 | 39.60521 | 11220 ft | 333 kts | 303° |
| 2026-04-26 17:57 | 43.58338 | 39.57999 | 12028 ft | 338 kts | 308° |
| 2026-04-26 17:57 | 43.60177 | 39.55917 | 12845 ft | 349 kts | 326° |
| 2026-04-26 17:57 | 43.62479 | 39.54720 | 13641 ft | 361 kts | 345° |
| 2026-04-26 17:58 | 43.69884 | 39.57257 | 15716 ft | 387 kts | 34° |
| 2026-04-26 17:59 | 43.73404 | 39.62929 | 17067 ft | 397 kts | 64° |
| 2026-04-26 17:59 | 43.74343 | 39.66514 | 17722 ft | 399 kts | 78° |
| 2026-04-26 17:59 | 43.74921 | 39.70288 | 18340 ft | 403 kts | 79° |
| 2026-04-26 17:59 | 43.75489 | 39.74098 | 18917 ft | 406 kts | 79° |
| 2026-04-26 18:00 | 43.76061 | 39.77943 | 19499 ft | 410 kts | 79° |
| 2026-04-26 18:00 | 43.76658 | 39.81810 | 20084 ft | 413 kts | 75° |
| 2026-04-26 18:00 | 43.77677 | 39.85539 | 20658 ft | 417 kts | 62° |
| 2026-04-26 18:00 | 43.79255 | 39.88906 | 21228 ft | 419 kts | 49° |
| 2026-04-26 18:01 | 43.81272 | 39.91817 | 21799 ft | 420 kts | 44° |
| 2026-04-26 18:01 | 43.82995 | 39.95098 | 22379 ft | 426 kts | 65° |
| 2026-04-26 18:01 | 43.83734 | 39.99063 | 22940 ft | 429 kts | 88° |
| 2026-04-26 18:01 | 43.83466 | 40.03155 | 23505 ft | 428 kts | 105° |
| 2026-04-26 18:02 | 43.82515 | 40.07056 | 23962 ft | 428 kts | 113° |
| 2026-04-26 18:02 | 43.81818 | 40.09617 | 24264 ft | 430 kts | 112° |
| 2026-04-26 18:02 | 43.80446 | 40.14847 | 24869 ft | 434 kts | 112° |
| 2026-04-26 18:02 | 43.79431 | 40.18787 | 25336 ft | 436 kts | 112° |
| 2026-04-26 18:03 | 43.78410 | 40.22741 | 25800 ft | 437 kts | 112° |
| 2026-04-26 18:03 | 43.77377 | 40.26696 | 26240 ft | 437 kts | 112° |
| 2026-04-26 18:03 | 43.76329 | 40.30658 | 26657 ft | 439 kts | 112° |
| 2026-04-26 18:03 | 43.75265 | 40.34631 | 27067 ft | 442 kts | 112° |
| 2026-04-26 18:04 | 43.74191 | 40.38623 | 27477 ft | 444 kts | 113° |
| 2026-04-26 18:04 | 43.73112 | 40.42623 | 27899 ft | 446 kts | 112° |
| 2026-04-26 18:04 | 43.72030 | 40.46646 | 28276 ft | 448 kts | 112° |
| 2026-04-26 18:05 | 43.69853 | 40.54755 | 29034 ft | 452 kts | 112° |
| 2026-04-26 18:05 | 43.68755 | 40.58837 | 29424 ft | 454 kts | 112° |
| 2026-04-26 18:05 | 43.67650 | 40.62928 | 29761 ft | 456 kts | 113° |
| 2026-04-26 18:05 | 43.66535 | 40.67045 | 30087 ft | 459 kts | 112° |
| 2026-04-26 18:06 | 43.65415 | 40.71170 | 30383 ft | 460 kts | 112° |
| 2026-04-26 18:06 | 43.64288 | 40.75322 | 30630 ft | 463 kts | 113° |
| 2026-04-26 18:06 | 43.63154 | 40.79488 | 30887 ft | 464 kts | 113° |
| 2026-04-26 18:06 | 43.62015 | 40.83666 | 31167 ft | 466 kts | 113° |
| 2026-04-26 18:07 | 43.60870 | 40.87850 | 31371 ft | 468 kts | 112° |
| 2026-04-26 18:07 | 43.59720 | 40.92058 | 31661 ft | 468 kts | 112° |
| 2026-04-26 18:07 | 43.58574 | 40.96250 | 32039 ft | 467 kts | 112° |
| 2026-04-26 18:07 | 43.57814 | 40.99022 | 32264 ft | 467 kts | 113° |
| 2026-04-26 18:08 | 43.56269 | 41.04647 | 32573 ft | 470 kts | 112° |
| 2026-04-26 18:08 | 43.55115 | 41.08851 | 32926 ft | 468 kts | 113° |
| 2026-04-26 18:08 | 43.53958 | 41.13051 | 33211 ft | 469 kts | 114° |
| 2026-04-26 18:08 | 43.52795 | 41.17257 | 33505 ft | 469 kts | 114° |
| 2026-04-26 18:09 | 43.51633 | 41.21450 | 33877 ft | 468 kts | 114° |
| 2026-04-26 18:09 | 43.50471 | 41.25639 | 34142 ft | 469 kts | 114° |
| 2026-04-26 18:09 | 43.49307 | 41.29833 | 34405 ft | 469 kts | 112° |
| 2026-04-26 18:09 | 43.48147 | 41.34013 | 34722 ft | 467 kts | 114° |
| 2026-04-26 18:10 | 43.47000 | 41.38135 | 34963 ft | 467 kts | 114° |
| 2026-04-26 18:10 | 43.45833 | 41.42314 | 35209 ft | 467 kts | 114° |
| 2026-04-26 18:10 | 43.44683 | 41.46427 | 35495 ft | 466 kts | 114° |
| 2026-04-26 18:10 | 43.43517 | 41.50586 | 35722 ft | 466 kts | 114° |
| 2026-04-26 18:11 | 43.42347 | 41.54751 | 35993 ft | 465 kts | 114° |
| 2026-04-26 18:11 | 43.41183 | 41.58887 | 36314 ft | 463 kts | 114° |
| 2026-04-26 18:11 | 43.40020 | 41.63007 | 36573 ft | 462 kts | 114° |
| 2026-04-26 18:11 | 43.38856 | 41.67128 | 36814 ft | 462 kts | 114° |
| 2026-04-26 18:12 | 43.37695 | 41.71238 | 36966 ft | 462 kts | 114° |
| 2026-04-26 18:12 | 43.35375 | 41.79437 | 36984 ft | 459 kts | 114° |
| 2026-04-26 18:13 | 43.33061 | 41.87601 | 36975 ft | 458 kts | 114° |
| 2026-04-26 18:13 | 43.30738 | 41.95749 | 36975 ft | 459 kts | 115° |
| 2026-04-26 18:14 | 43.28406 | 42.03898 | 36979 ft | 458 kts | 115° |
| 2026-04-26 18:14 | 43.26090 | 42.11990 | 36980 ft | 458 kts | 115° |
| 2026-04-26 18:15 | 43.23752 | 42.20124 | 36968 ft | 458 kts | 115° |
| 2026-04-26 18:15 | 43.21780 | 42.26927 | 36977 ft | 459 kts | 115° |
| 2026-04-26 18:16 | 43.19416 | 42.35054 | 37005 ft | 459 kts | 115° |
| 2026-04-26 18:16 | 43.15893 | 42.47181 | 37027 ft | 459 kts | 115° |
| 2026-04-26 18:17 | 43.13530 | 42.55297 | 37063 ft | 459 kts | 115° |
| 2026-04-26 18:17 | 43.11157 | 42.63406 | 37099 ft | 459 kts | 115° |
| 2026-04-26 18:18 | 43.08778 | 42.71504 | 37104 ft | 458 kts | 116° |
| 2026-04-26 18:18 | 43.06397 | 42.79588 | 37108 ft | 459 kts | 115° |
| 2026-04-26 18:19 | 43.04013 | 42.87677 | 37110 ft | 459 kts | 115° |
| 2026-04-26 18:19 | 43.01617 | 42.95758 | 37081 ft | 459 kts | 116° |
| 2026-04-26 18:20 | 42.99212 | 43.03825 | 37051 ft | 458 kts | 116° |
| 2026-04-26 18:20 | 42.98009 | 43.07862 | 36768 ft | 461 kts | 116° |
| 2026-04-26 18:20 | 42.97205 | 43.10556 | 36126 ft | 465 kts | 115° |
| 2026-04-26 18:21 | 42.95568 | 43.16046 | 35004 ft | 468 kts | 116° |
| 2026-04-26 18:21 | 42.94341 | 43.20143 | 34478 ft | 463 kts | 116° |
| 2026-04-26 18:21 | 42.92983 | 43.24086 | 33895 ft | 456 kts | 124° |
| 2026-04-26 18:21 | 42.91236 | 43.27633 | 33301 ft | 446 kts | 133° |
| 2026-04-26 18:22 | 42.89200 | 43.30667 | 32819 ft | 436 kts | 141° |
| 2026-04-26 18:22 | 42.86873 | 43.33261 | 32317 ft | 426 kts | 149° |
| 2026-04-26 18:22 | 42.84459 | 43.35558 | 31809 ft | 420 kts | 149° |
| 2026-04-26 18:22 | 42.82083 | 43.37818 | 31351 ft | 415 kts | 149° |
| 2026-04-26 18:23 | 42.79725 | 43.40060 | 30873 ft | 412 kts | 149° |
| 2026-04-26 18:23 | 42.77389 | 43.42281 | 30399 ft | 408 kts | 149° |
| 2026-04-26 18:23 | 42.75071 | 43.44482 | 29920 ft | 404 kts | 149° |
| 2026-04-26 18:23 | 42.72774 | 43.46659 | 29433 ft | 400 kts | 149° |
| 2026-04-26 18:24 | 42.70507 | 43.48808 | 28993 ft | 394 kts | 149° |
| 2026-04-26 18:24 | 42.68270 | 43.50927 | 28554 ft | 390 kts | 149° |
| 2026-04-26 18:24 | 42.66058 | 43.53023 | 28135 ft | 385 kts | 150° |
| 2026-04-26 18:24 | 42.63874 | 43.55095 | 27719 ft | 381 kts | 149° |
| 2026-04-26 18:25 | 42.61709 | 43.57146 | 27312 ft | 378 kts | 149° |
| 2026-04-26 18:25 | 42.59562 | 43.59177 | 26915 ft | 374 kts | 149° |
| 2026-04-26 18:25 | 42.57443 | 43.61185 | 26520 ft | 370 kts | 149° |
| 2026-04-26 18:25 | 42.55340 | 43.63172 | 26125 ft | 367 kts | 149° |
| 2026-04-26 18:26 | 42.53288 | 43.65104 | 25738 ft | 363 kts | 149° |
| 2026-04-26 18:26 | 42.51191 | 43.67073 | 25332 ft | 360 kts | 149° |
| 2026-04-26 18:26 | 42.49170 | 43.68970 | 24918 ft | 357 kts | 149° |
| 2026-04-26 18:26 | 42.47138 | 43.70883 | 24525 ft | 355 kts | 149° |
| 2026-04-26 18:27 | 42.45096 | 43.72805 | 24091 ft | 353 kts | 149° |
| 2026-04-26 18:27 | 42.43099 | 43.74679 | 23665 ft | 352 kts | 149° |
| 2026-04-26 18:27 | 42.41094 | 43.76559 | 23197 ft | 350 kts | 149° |
| 2026-04-26 18:27 | 42.39093 | 43.78429 | 22764 ft | 348 kts | 149° |
| 2026-04-26 18:28 | 42.37109 | 43.80279 | 22342 ft | 346 kts | 149° |
| 2026-04-26 18:28 | 42.35133 | 43.82122 | 21916 ft | 344 kts | 149° |
| 2026-04-26 18:28 | 42.33171 | 43.83954 | 21498 ft | 342 kts | 149° |
| 2026-04-26 18:28 | 42.31216 | 43.85780 | 21076 ft | 341 kts | 149° |
| 2026-04-26 18:29 | 42.29272 | 43.87596 | 20665 ft | 340 kts | 149° |
| 2026-04-26 18:29 | 42.27331 | 43.89408 | 20262 ft | 339 kts | 149° |
| 2026-04-26 18:29 | 42.25363 | 43.91241 | 19845 ft | 338 kts | 149° |
| 2026-04-26 18:29 | 42.23459 | 43.93016 | 19439 ft | 337 kts | 149° |
| 2026-04-26 18:30 | 42.21529 | 43.94814 | 19025 ft | 336 kts | 149° |
| 2026-04-26 18:30 | 42.19606 | 43.96602 | 18622 ft | 335 kts | 149° |
| 2026-04-26 18:30 | 42.17687 | 43.98386 | 18202 ft | 335 kts | 149° |
| 2026-04-26 18:30 | 42.15772 | 44.00164 | 17768 ft | 333 kts | 149° |
| 2026-04-26 18:31 | 42.13870 | 44.01928 | 17372 ft | 331 kts | 149° |
| 2026-04-26 18:31 | 42.11977 | 44.03683 | 16975 ft | 329 kts | 149° |
| 2026-04-26 18:31 | 42.10070 | 44.05450 | 16573 ft | 328 kts | 149° |
| 2026-04-26 18:31 | 42.08195 | 44.07187 | 16186 ft | 326 kts | 149° |
| 2026-04-26 18:32 | 42.06331 | 44.08918 | 15808 ft | 325 kts | 149° |
| 2026-04-26 18:32 | 42.04474 | 44.10646 | 15419 ft | 325 kts | 147° |
| 2026-04-26 18:32 | 42.02812 | 44.12715 | 15018 ft | 329 kts | 133° |
| 2026-04-26 18:32 | 42.01580 | 44.15268 | 14625 ft | 333 kts | 118° |
| 2026-04-26 18:33 | 42.00830 | 44.18260 | 14208 ft | 335 kts | 104° |
| 2026-04-26 18:33 | 42.00329 | 44.21322 | 13792 ft | 336 kts | 104° |
| 2026-04-26 18:33 | 41.99821 | 44.24391 | 13342 ft | 336 kts | 104° |
| 2026-04-26 18:33 | 41.99319 | 44.27400 | 13020 ft | 331 kts | 104° |
| 2026-04-26 18:34 | 41.98806 | 44.30466 | 12471 ft | 334 kts | 104° |
| 2026-04-26 18:34 | 41.98294 | 44.33511 | 12010 ft | 333 kts | 104° |
| 2026-04-26 18:34 | 41.97789 | 44.36523 | 11793 ft | 325 kts | 104° |
| 2026-04-26 18:34 | 41.97301 | 44.39440 | 11618 ft | 316 kts | 104° |
| 2026-04-26 18:35 | 41.96822 | 44.42292 | 11199 ft | 309 kts | 104° |
| 2026-04-26 18:35 | 41.96348 | 44.45100 | 10574 ft | 306 kts | 104° |
| 2026-04-26 18:35 | 41.95879 | 44.47864 | 9986 ft | 301 kts | 103° |
| 2026-04-26 18:35 | 41.95424 | 44.50557 | 9543 ft | 290 kts | 103° |
| 2026-04-26 18:36 | 41.94987 | 44.53147 | 9248 ft | 280 kts | 103° |
| 2026-04-26 18:36 | 41.94565 | 44.55659 | 9088 ft | 272 kts | 103° |
| 2026-04-26 18:36 | 41.94167 | 44.58030 | 8965 ft | 270 kts | 103° |
| 2026-04-26 18:36 | 41.93571 | 44.60436 | 8840 ft | 268 kts | 118° |
| 2026-04-26 18:37 | 41.92540 | 44.62526 | 8515 ft | 277 kts | 132° |
| 2026-04-26 18:37 | 41.91137 | 44.64398 | 7925 ft | 286 kts | 139° |
| 2026-04-26 18:37 | 41.89695 | 44.66163 | 7763 ft | 273 kts | 138° |
| 2026-04-26 18:37 | 41.88377 | 44.67833 | 7642 ft | 247 kts | 137° |
| 2026-04-26 18:38 | 41.87184 | 44.69360 | 7306 ft | 234 kts | 138° |
| 2026-04-26 18:38 | 41.86032 | 44.70830 | 6985 ft | 223 kts | 137° |
| 2026-04-26 18:38 | 41.84920 | 44.72248 | 6687 ft | 212 kts | 137° |
| 2026-04-26 18:38 | 41.83918 | 44.73526 | 6636 ft | 191 kts | 137° |
| 2026-04-26 18:39 | 41.82968 | 44.74736 | 6359 ft | 182 kts | 138° |
| 2026-04-26 18:39 | 41.82083 | 44.75863 | 6076 ft | 174 kts | 138° |
| 2026-04-26 18:39 | 41.81222 | 44.76958 | 5813 ft | 168 kts | 138° |
| 2026-04-26 18:39 | 41.80360 | 44.78053 | 5553 ft | 172 kts | 138° |
| 2026-04-26 18:40 | 41.79493 | 44.79156 | 5290 ft | 171 kts | 137° |
| 2026-04-26 18:40 | 41.78620 | 44.80266 | 5024 ft | 170 kts | 137° |
| 2026-04-26 18:40 | 41.77765 | 44.81352 | 4762 ft | 169 kts | 137° |
| 2026-04-26 18:40 | 41.76906 | 44.82444 | 4487 ft | 170 kts | 137° |
| 2026-04-26 18:41 | 41.76052 | 44.83528 | 4221 ft | 168 kts | 137° |
| 2026-04-26 18:41 | 41.75203 | 44.84605 | 3955 ft | 168 kts | 137° |
| 2026-04-26 18:41 | 41.74362 | 44.85672 | 3704 ft | 166 kts | 137° |
| 2026-04-26 18:41 | 41.73558 | 44.86688 | 3423 ft | 154 kts | 137° |
| 2026-04-26 18:42 | 41.72797 | 44.87652 | 3165 ft | 149 kts | 136° |
| 2026-04-26 18:42 | 41.72060 | 44.88615 | 2957 ft | 147 kts | 135° |
| 2026-04-26 18:42 | 41.71336 | 44.89548 | 2716 ft | 146 kts | 136° |
| 2026-04-26 18:42 | 41.70597 | 44.90481 | 2474 ft | 146 kts | 137° |
| 2026-04-26 18:43 | 41.69840 | 44.91408 | 2265 ft | 145 kts | 136° |
| 2026-04-26 18:43 | 41.69109 | 44.92340 | 2046 ft | 145 kts | 135° |
| 2026-04-26 18:43 | 41.68383 | 44.93262 | 1798 ft | 143 kts | 135° |
| 2026-04-26 18:43 | 41.67669 | 44.94164 | 1584 ft | 143 kts | 135° |
| 2026-04-26 18:44 | 41.66978 | 44.95022 | 1559 ft | 124 kts | 134° |
| 2026-04-26 18:44 | 41.66266 | 44.95921 | 2008 ft | 149 kts | 136° |
| 2026-04-26 18:44 | 41.65509 | 44.96866 | 2746 ft | 149 kts | 136° |
| 2026-04-26 18:44 | 41.64755 | 44.97824 | 3394 ft | 155 kts | 136° |
| 2026-04-26 18:45 | 41.63926 | 44.98895 | 3716 ft | 177 kts | 136° |
| 2026-04-26 18:45 | 41.62972 | 45.00091 | 4013 ft | 199 kts | 137° |
| 2026-04-26 18:45 | 41.61827 | 45.01227 | 4443 ft | 211 kts | 156° |
| 2026-04-26 18:45 | 41.60390 | 45.01565 | 5168 ft | 213 kts | 186° |
| 2026-04-26 18:46 | 41.59030 | 45.00828 | 5883 ft | 215 kts | 219° |
| 2026-04-26 18:46 | 41.58192 | 44.99181 | 6603 ft | 220 kts | 252° |
| 2026-04-26 18:46 | 41.58155 | 44.97145 | 6893 ft | 223 kts | 287° |
| 2026-04-26 18:46 | 41.59002 | 44.95436 | 6965 ft | 225 kts | 321° |
| 2026-04-26 18:47 | 41.60435 | 44.94649 | 6979 ft | 228 kts | 355° |
| 2026-04-26 18:47 | 41.62026 | 44.94615 | 6982 ft | 229 kts | 358° |
| 2026-04-26 18:47 | 41.63623 | 44.94562 | 6983 ft | 230 kts | 357° |
| 2026-04-26 18:47 | 41.65219 | 44.94500 | 6982 ft | 230 kts | 357° |
| 2026-04-26 18:48 | 41.66818 | 44.94439 | 6984 ft | 230 kts | 357° |
| 2026-04-26 18:48 | 41.68416 | 44.94378 | 6983 ft | 230 kts | 357° |
| 2026-04-26 18:48 | 41.70013 | 44.94315 | 6983 ft | 230 kts | 356° |
| 2026-04-26 18:48 | 41.71566 | 44.93912 | 6982 ft | 228 kts | 340° |
| 2026-04-26 18:49 | 41.73060 | 44.93199 | 6982 ft | 228 kts | 338° |
| 2026-04-26 18:49 | 41.74541 | 44.92444 | 6983 ft | 228 kts | 337° |
| 2026-04-26 18:49 | 41.76020 | 44.91682 | 6981 ft | 227 kts | 337° |
| 2026-04-26 18:49 | 41.77494 | 44.90916 | 6983 ft | 227 kts | 337° |
| 2026-04-26 18:50 | 41.78966 | 44.90149 | 6984 ft | 227 kts | 337° |
| 2026-04-26 18:50 | 41.80436 | 44.89382 | 6984 ft | 227 kts | 337° |
| 2026-04-26 18:50 | 41.81910 | 44.88612 | 6985 ft | 227 kts | 337° |
| 2026-04-26 18:50 | 41.83381 | 44.87842 | 6985 ft | 227 kts | 337° |
| 2026-04-26 18:51 | 41.84850 | 44.87075 | 6985 ft | 227 kts | 337° |
| 2026-04-26 18:51 | 41.86322 | 44.86307 | 6986 ft | 227 kts | 337° |
| 2026-04-26 18:51 | 41.87795 | 44.85539 | 6985 ft | 227 kts | 337° |
| 2026-04-26 18:51 | 41.89253 | 44.84721 | 6989 ft | 228 kts | 328° |
| 2026-04-26 18:52 | 41.90335 | 44.83233 | 6992 ft | 224 kts | 294° |
| 2026-04-26 18:52 | 41.90620 | 44.81920 | 6990 ft | 221 kts | 271° |
| 2026-04-26 18:52 | 41.90007 | 44.79390 | 6989 ft | 217 kts | 225° |
| 2026-04-26 18:52 | 41.88739 | 44.78352 | 6988 ft | 217 kts | 191° |
| 2026-04-26 18:53 | 41.87230 | 44.78201 | 6986 ft | 219 kts | 179° |
| 2026-04-26 18:53 | 41.85702 | 44.78268 | 6984 ft | 220 kts | 177° |
| 2026-04-26 18:53 | 41.84181 | 44.78366 | 6775 ft | 218 kts | 178° |
| 2026-04-26 18:53 | 41.82670 | 44.78484 | 6483 ft | 217 kts | 177° |
| 2026-04-26 18:54 | 41.81162 | 44.78613 | 6166 ft | 216 kts | 176° |
| 2026-04-26 18:54 | 41.79722 | 44.79124 | 5851 ft | 216 kts | 152° |
| 2026-04-26 18:54 | 41.78555 | 44.80344 | 5696 ft | 209 kts | 137° |
| 2026-04-26 18:54 | 41.77520 | 44.81662 | 5567 ft | 201 kts | 137° |
| 2026-04-26 18:55 | 41.76537 | 44.82913 | 5322 ft | 190 kts | 137° |
| 2026-04-26 18:55 | 41.75588 | 44.84118 | 4825 ft | 187 kts | 137° |
| 2026-04-26 18:55 | 41.74650 | 44.85307 | 4281 ft | 187 kts | 137° |
| 2026-04-26 18:55 | 41.73695 | 44.86518 | 3699 ft | 192 kts | 137° |
| 2026-04-26 18:56 | 41.72720 | 44.87755 | 3228 ft | 192 kts | 136° |
| 2026-04-26 18:56 | 41.72070 | 44.88579 | 2986 ft | 190 kts | 136° |
| 2026-04-26 18:56 | 41.71114 | 44.89789 | 2654 ft | 186 kts | 136° |
| 2026-04-26 18:56 | 41.70219 | 44.90922 | 2392 ft | 167 kts | 136° |
| 2026-04-26 18:57 | 41.69405 | 44.91952 | 2093 ft | 157 kts | 135° |
| 2026-04-26 18:57 | 41.68884 | 44.92618 | 1905 ft | 150 kts | 134° |
| 2026-04-26 18:57 | 41.67921 | 44.93847 | 1629 ft | 141 kts | 135° |
| 2026-04-26 18:57 | 41.67229 | 44.94716 | 1522 ft | 124 kts | 134° |
| 2026-04-26 18:58 | 41.66731 | 44.95344 | 1522 ft | 71 kts | 136° |
| 2026-04-26 18:58 | 41.66407 | 44.95754 | 1526 ft | 60 kts | 137° |
| 2026-04-26 18:58 | 41.66109 | 44.96116 | 1526 ft | 55 kts | 136° |
| 2026-04-26 18:58 | 41.65879 | 44.96413 | 1525 ft | 29 kts | 134° |
| 2026-04-26 18:59 | 41.65869 | 44.96576 | 1524 ft | 0 kts | 41° |
| 2026-04-26 19:00 | 41.65869 | 44.96577 | 1524 ft | 1 kts | 40° |
| 2026-04-26 19:00 | 41.65961 | 44.96575 | 1525 ft | 27 kts | 322° |
| 2026-04-26 19:00 | 41.66098 | 44.96395 | 1521 ft | 29 kts | 315° |
| 2026-04-26 19:00 | 41.66274 | 44.96300 | 1524 ft | 29 kts | 4° |
| 2026-04-26 19:01 | 41.66471 | 44.96361 | 1523 ft | 29 kts | 14° |
| 2026-04-26 19:01 | 41.66673 | 44.96425 | 1522 ft | 30 kts | 13° |
| 2026-04-26 19:01 | 41.66764 | 44.96391 | 1525 ft | 6 kts | 4° |
| 2026-04-26 19:01 | 41.66823 | 44.96442 | 1526 ft | 0 kts | 41° |